San Luis Valley Regional Bergman Field
KALS : now visible

Airfield :











YOU CAN JOIN US ON...

 
LOGIN :

Register | Disclaimer

   EN    FR    IT 

 









Legend :    VFR   Marginal VFR   IFR   Intensive IFR   Very Intensive IFR
Visi :
Ceiling :
>= 8 km
>= 3000ft
5 to 8 km
1000 to 3000 ft
1500m to 5 km
500 to 1000 ft
800 to 1500m
200 to 500 ft
< 800m
< 200 ft
Symbols :   Thunderstorms  Fog  Heavy snow  Heavy precipitations  Wind > 20 kt






- Airport Elevation : 7539 ft


KALS - San Luis Valley Regional Bergman Field

CURRENT METAR :
  • 012152Z AUTO 27017KT 10SM FEW043 SCT100 BKN120 19/10 A3030 RMK AO2 PK WND 29027/2119 LTG DSNT SE SLP173 T01940100 $

EXPIRED METARs :
  • 012052Z AUTO 27016G22KT 10SM SCT100 20/12 A3030 RMK AO2 LTG DSNT N AND S AND SW RAB01E27 SLP174 P0000 60000 T02000117 56008 $

TAF KALS
Valid from the 01 at 21:00 until the 02 at 18:00 UTC


012108Z 0121/0218 27016G22KT P6SM VCTS BKN060CB OVC100
TEMPO 0121/0123 -TSRA BKN060CB
FM012300 30010KT P6SM VCSH SCT060 BKN120
FM020400 16007KT P6SM SCT080 BKN140
FM020700 VRB05KT P6SM BKN120
KZDV FIR / North America



MET'MAP, your aeronautical weather chart ! - Copyright ORBIFLY December 2007 - Disclaimer

ORBIFLY MET'MAP TEAM :

Programming & Development : Alexandra Zaïnal
Original concept : Baudouin d'Aumeries
Technical & hardware support : Manuel Goepfert
Assistance : Marc-Olivier Méhu




SOURCES & CREDITS :

   NOAA       Earth
Advisory